sensor_id;sensor_type;location;lat;lon;timestamp;pressure;altitude;pressure_sealevel;temperature;humidity
71903;BME280;59778;50.310;18.780;2023-03-31T00:08:54;98064.25;;;9.30;99.13
71903;BME280;59778;50.310;18.780;2023-03-31T00:24:16;98062.31;;;9.11;99.95
71903;BME280;59778;50.310;18.780;2023-03-31T00:39:37;98060.44;;;9.05;100.00
71903;BME280;59778;50.310;18.780;2023-03-31T00:55:02;98056.19;;;8.89;100.00
71903;BME280;59778;50.310;18.780;2023-03-31T01:10:26;98042.63;;;8.82;100.00
71903;BME280;59778;50.310;18.780;2023-03-31T01:25:57;98033.16;;;8.59;100.00
71903;BME280;59778;50.310;18.780;2023-03-31T02:12:30;98038.47;;;8.45;100.00
71903;BME280;59778;50.310;18.780;2023-03-31T02:27:57;98029.88;;;8.29;100.00
71903;BME280;59778;50.310;18.780;2023-03-31T02:43:20;98023.34;;;8.23;100.00
71903;BME280;59778;50.310;18.780;2023-03-31T03:14:27;98014.59;;;8.21;100.00
71903;BME280;59778;50.310;18.780;2023-03-31T03:29:51;98001.25;;;8.13;100.00
71903;BME280;59778;50.310;18.780;2023-03-31T03:45:13;97997.25;;;8.09;100.00
71903;BME280;59778;50.310;18.780;2023-03-31T04:00:35;97986.94;;;7.91;100.00
71903;BME280;59778;50.310;18.780;2023-03-31T04:15:57;97980.06;;;7.89;100.00
71903;BME280;59778;50.310;18.780;2023-03-31T04:31:19;97981.09;;;7.60;100.00
71903;BME280;59778;50.310;18.780;2023-03-31T04:46:45;97957.50;;;7.47;100.00
71903;BME280;59778;50.310;18.780;2023-03-31T05:02:06;97951.41;;;7.39;100.00
71903;BME280;59778;50.310;18.780;2023-03-31T05:17:30;97944.50;;;7.30;100.00
71903;BME280;59778;50.310;18.780;2023-03-31T05:32:52;97922.00;;;7.50;100.00
71903;BME280;59778;50.310;18.780;2023-03-31T05:48:13;97931.59;;;7.87;100.00
71903;BME280;59778;50.310;18.780;2023-03-31T06:03:37;97924.41;;;8.35;98.77
71903;BME280;59778;50.310;18.780;2023-03-31T06:18:58;97913.50;;;8.89;97.03
71903;BME280;59778;50.310;18.780;2023-03-31T06:34:20;97902.50;;;9.63;92.72
71903;BME280;59778;50.310;18.780;2023-03-31T06:49:42;97891.78;;;10.01;89.94
71903;BME280;59778;50.310;18.780;2023-03-31T07:05:03;97884.19;;;10.74;86.49
71903;BME280;59778;50.310;18.780;2023-03-31T07:20:25;97883.94;;;11.13;84.54
71903;BME280;59778;50.310;18.780;2023-03-31T07:35:47;97853.38;;;12.04;79.52
71903;BME280;59778;50.310;18.780;2023-03-31T07:51:09;97858.66;;;11.99;78.81
71903;BME280;59778;50.310;18.780;2023-03-31T08:06:30;97844.00;;;12.00;80.02
71903;BME280;59778;50.310;18.780;2023-03-31T08:21:52;97820.16;;;12.32;77.08
71903;BME280;59778;50.310;18.780;2023-03-31T08:37:14;97777.03;;;12.47;77.28
71903;BME280;59778;50.310;18.780;2023-03-31T08:52:40;97751.53;;;13.76;72.29
71903;BME280;59778;50.310;18.780;2023-03-31T09:08:13;97727.53;;;14.74;68.22
71903;BME280;59778;50.310;18.780;2023-03-31T09:23:43;97722.13;;;14.62;68.72
71903;BME280;59778;50.310;18.780;2023-03-31T09:39:11;97691.75;;;14.02;69.68
71903;BME280;59778;50.310;18.780;2023-03-31T09:54:36;97683.63;;;14.19;68.67
71903;BME280;59778;50.310;18.780;2023-03-31T10:09:59;97679.66;;;13.70;71.25
71903;BME280;59778;50.310;18.780;2023-03-31T10:25:23;97651.06;;;13.73;71.74
71903;BME280;59778;50.310;18.780;2023-03-31T10:40:54;97638.44;;;13.83;71.63
71903;BME280;59778;50.310;18.780;2023-03-31T10:56:37;97621.47;;;14.38;71.00
71903;BME280;59778;50.310;18.780;2023-03-31T11:43:23;97552.88;;;14.23;70.39
71903;BME280;59778;50.310;18.780;2023-03-31T11:58:46;97523.13;;;14.38;70.47
71903;BME280;59778;50.310;18.780;2023-03-31T12:14:40;97497.84;;;13.97;78.24
71903;BME280;59778;50.310;18.780;2023-03-31T12:30:05;97461.66;;;14.79;66.06
71903;BME280;59778;50.310;18.780;2023-03-31T12:45:37;97435.25;;;15.38;59.68
71903;BME280;59778;50.310;18.780;2023-03-31T13:01:11;97433.59;;;15.10;60.24
71903;BME280;59778;50.310;18.780;2023-03-31T13:16:34;97426.16;;;14.62;61.65
71903;BME280;59778;50.310;18.780;2023-03-31T14:18:48;97349.47;;;12.07;87.46
71903;BME280;59778;50.310;18.780;2023-03-31T14:49:38;97291.78;;;11.47;98.10
71903;BME280;59778;50.310;18.780;2023-03-31T15:05:05;97275.00;;;11.50;99.64
71903;BME280;59778;50.310;18.780;2023-03-31T15:20:34;97234.84;;;11.40;100.00
71903;BME280;59778;50.310;18.780;2023-03-31T15:35:56;97212.72;;;12.00;100.00
71903;BME280;59778;50.310;18.780;2023-03-31T15:51:31;97186.53;;;12.10;98.29
71903;BME280;59778;50.310;18.780;2023-03-31T16:22:32;97163.38;;;11.79;100.00
71903;BME280;59778;50.310;18.780;2023-03-31T16:37:55;97137.22;;;11.78;100.00
71903;BME280;59778;50.310;18.780;2023-03-31T16:53:18;97120.78;;;12.02;98.79
71903;BME280;59778;50.310;18.780;2023-03-31T17:08:40;97132.03;;;11.65;100.00
71903;BME280;59778;50.310;18.780;2023-03-31T17:24:05;97179.53;;;11.34;96.04
71903;BME280;59778;50.310;18.780;2023-03-31T17:39:26;97163.50;;;10.10;100.00
71903;BME280;59778;50.310;18.780;2023-03-31T17:54:48;97103.53;;;10.00;98.15
71903;BME280;59778;50.310;18.780;2023-03-31T18:10:09;97111.31;;;10.26;97.47
71903;BME280;59778;50.310;18.780;2023-03-31T18:25:30;97089.34;;;9.75;100.00
71903;BME280;59778;50.310;18.780;2023-03-31T18:40:52;97083.84;;;9.52;99.84
71903;BME280;59778;50.310;18.780;2023-03-31T18:56:14;97084.38;;;9.42;100.00
71903;BME280;59778;50.310;18.780;2023-03-31T19:11:36;97061.00;;;9.29;100.00
71903;BME280;59778;50.310;18.780;2023-03-31T19:26:58;97057.59;;;9.04;100.00
71903;BME280;59778;50.310;18.780;2023-03-31T19:42:20;97048.72;;;8.97;100.00
71903;BME280;59778;50.310;18.780;2023-03-31T19:57:41;97051.66;;;8.95;100.00
71903;BME280;59778;50.310;18.780;2023-03-31T20:13:02;97070.69;;;9.07;100.00
71903;BME280;59778;50.310;18.780;2023-03-31T20:28:24;97079.84;;;9.06;100.00
71903;BME280;59778;50.310;18.780;2023-03-31T20:43:45;97096.22;;;9.29;96.25
71903;BME280;59778;50.310;18.780;2023-03-31T20:59:12;97105.38;;;9.46;89.16
71903;BME280;59778;50.310;18.780;2023-03-31T21:14:33;97109.13;;;9.45;87.05
71903;BME280;59778;50.310;18.780;2023-03-31T21:29:55;97104.41;;;9.41;86.63
71903;BME280;59778;50.310;18.780;2023-03-31T21:45:16;97112.72;;;9.28;86.93
71903;BME280;59778;50.310;18.780;2023-03-31T22:00:37;97124.47;;;9.04;86.96
71903;BME280;59778;50.310;18.780;2023-03-31T22:15:59;97128.81;;;8.86;87.17
71903;BME280;59778;50.310;18.780;2023-03-31T22:31:21;97152.09;;;8.69;88.56
71903;BME280;59778;50.310;18.780;2023-03-31T22:46:43;97130.31;;;8.64;88.92
71903;BME280;59778;50.310;18.780;2023-03-31T23:02:09;97129.47;;;8.64;89.76
71903;BME280;59778;50.310;18.780;2023-03-31T23:17:31;97132.19;;;8.64;89.87
71903;BME280;59778;50.310;18.780;2023-03-31T23:32:52;97111.88;;;8.55;90.33
71903;BME280;59778;50.310;18.780;2023-03-31T23:48:14;97105.78;;;8.59;89.43
